sensor_id;sensor_type;location;lat;lon;timestamp;P1;durP1;ratioP1;P2;durP2;ratioP2
64197;SDS011;50512;53.666;9.700;2023-08-06T00:00:43;21.13;;;10.05;;
64197;SDS011;50512;53.666;9.700;2023-08-06T00:03:10;20.95;;;9.35;;
64197;SDS011;50512;53.666;9.700;2023-08-06T00:05:36;24.83;;;10.73;;
64197;SDS011;50512;53.666;9.700;2023-08-06T00:08:04;20.70;;;9.75;;
64197;SDS011;50512;53.666;9.700;2023-08-06T00:10:30;24.10;;;11.07;;
64197;SDS011;50512;53.666;9.700;2023-08-06T00:12:57;19.77;;;10.55;;
64197;SDS011;50512;53.666;9.700;2023-08-06T00:15:23;21.85;;;10.55;;
64197;SDS011;50512;53.666;9.700;2023-08-06T00:17:50;25.90;;;11.30;;
64197;SDS011;50512;53.666;9.700;2023-08-06T00:20:16;25.50;;;11.50;;
64197;SDS011;50512;53.666;9.700;2023-08-06T00:22:43;24.45;;;11.48;;
64197;SDS011;50512;53.666;9.700;2023-08-06T00:25:10;26.95;;;11.52;;
64197;SDS011;50512;53.666;9.700;2023-08-06T00:27:37;25.35;;;11.23;;
64197;SDS011;50512;53.666;9.700;2023-08-06T00:30:04;26.75;;;12.05;;
64197;SDS011;50512;53.666;9.700;2023-08-06T00:32:31;26.63;;;12.35;;
64197;SDS011;50512;53.666;9.700;2023-08-06T00:34:58;23.92;;;11.88;;
64197;SDS011;50512;53.666;9.700;2023-08-06T00:37:24;25.38;;;11.10;;
64197;SDS011;50512;53.666;9.700;2023-08-06T00:39:51;24.80;;;11.98;;
64197;SDS011;50512;53.666;9.700;2023-08-06T00:42:19;23.63;;;11.63;;
64197;SDS011;50512;53.666;9.700;2023-08-06T00:44:47;23.35;;;11.50;;
64197;SDS011;50512;53.666;9.700;2023-08-06T00:47:14;27.10;;;11.05;;
64197;SDS011;50512;53.666;9.700;2023-08-06T00:49:41;22.98;;;12.02;;
64197;SDS011;50512;53.666;9.700;2023-08-06T00:52:08;24.13;;;11.75;;
64197;SDS011;50512;53.666;9.700;2023-08-06T00:54:35;23.67;;;11.10;;
64197;SDS011;50512;53.666;9.700;2023-08-06T00:57:02;26.13;;;11.25;;
64197;SDS011;50512;53.666;9.700;2023-08-06T00:59:31;26.27;;;11.43;;
64197;SDS011;50512;53.666;9.700;2023-08-06T01:01:58;23.10;;;11.25;;
64197;SDS011;50512;53.666;9.700;2023-08-06T01:04:24;23.77;;;11.02;;
64197;SDS011;50512;53.666;9.700;2023-08-06T01:06:52;24.83;;;12.48;;
64197;SDS011;50512;53.666;9.700;2023-08-06T01:09:30;24.70;;;11.68;;
64197;SDS011;50512;53.666;9.700;2023-08-06T01:12:04;23.17;;;11.65;;
64197;SDS011;50512;53.666;9.700;2023-08-06T01:14:37;23.77;;;10.93;;
64197;SDS011;50512;53.666;9.700;2023-08-06T01:17:12;23.73;;;11.65;;
64197;SDS011;50512;53.666;9.700;2023-08-06T01:19:38;24.30;;;12.73;;
64197;SDS011;50512;53.666;9.700;2023-08-06T01:22:06;27.23;;;12.80;;
64197;SDS011;50512;53.666;9.700;2023-08-06T01:24:33;23.88;;;12.10;;
64197;SDS011;50512;53.666;9.700;2023-08-06T01:27:02;22.60;;;12.10;;
64197;SDS011;50512;53.666;9.700;2023-08-06T01:29:33;25.65;;;12.55;;
64197;SDS011;50512;53.666;9.700;2023-08-06T01:32:03;25.35;;;11.95;;
64197;SDS011;50512;53.666;9.700;2023-08-06T01:34:33;24.50;;;11.27;;
64197;SDS011;50512;53.666;9.700;2023-08-06T01:37:01;24.75;;;11.38;;
64197;SDS011;50512;53.666;9.700;2023-08-06T01:39:29;23.42;;;11.20;;
64197;SDS011;50512;53.666;9.700;2023-08-06T01:41:57;24.05;;;12.07;;
64197;SDS011;50512;53.666;9.700;2023-08-06T01:44:23;26.20;;;11.65;;
64197;SDS011;50512;53.666;9.700;2023-08-06T01:46:50;23.33;;;11.40;;
64197;SDS011;50512;53.666;9.700;2023-08-06T01:49:16;22.13;;;10.55;;
64197;SDS011;50512;53.666;9.700;2023-08-06T01:51:43;22.98;;;10.88;;
64197;SDS011;50512;53.666;9.700;2023-08-06T01:54:09;26.77;;;12.40;;
64197;SDS011;50512;53.666;9.700;2023-08-06T01:56:37;25.83;;;11.93;;
64197;SDS011;50512;53.666;9.700;2023-08-06T01:59:03;25.48;;;11.68;;
64197;SDS011;50512;53.666;9.700;2023-08-06T02:01:30;25.90;;;12.32;;
64197;SDS011;50512;53.666;9.700;2023-08-06T02:03:56;24.08;;;11.43;;
64197;SDS011;50512;53.666;9.700;2023-08-06T02:06:23;26.17;;;11.75;;
64197;SDS011;50512;53.666;9.700;2023-08-06T02:08:49;24.30;;;11.60;;
64197;SDS011;50512;53.666;9.700;2023-08-06T02:11:16;21.73;;;10.65;;
64197;SDS011;50512;53.666;9.700;2023-08-06T02:13:45;22.50;;;10.77;;
64197;SDS011;50512;53.666;9.700;2023-08-06T02:16:11;23.30;;;10.77;;
64197;SDS011;50512;53.666;9.700;2023-08-06T02:18:38;22.63;;;11.40;;
64197;SDS011;50512;53.666;9.700;2023-08-06T02:21:04;21.95;;;10.27;;
64197;SDS011;50512;53.666;9.700;2023-08-06T02:23:31;16.63;;;9.20;;
64197;SDS011;50512;53.666;9.700;2023-08-06T02:25:58;19.42;;;10.40;;
64197;SDS011;50512;53.666;9.700;2023-08-06T02:28:25;18.67;;;9.70;;
64197;SDS011;50512;53.666;9.700;2023-08-06T02:30:53;17.88;;;9.25;;
64197;SDS011;50512;53.666;9.700;2023-08-06T02:33:19;20.92;;;10.00;;
64197;SDS011;50512;53.666;9.700;2023-08-06T02:35:46;19.67;;;9.45;;
64197;SDS011;50512;53.666;9.700;2023-08-06T02:38:12;18.85;;;9.48;;
64197;SDS011;50512;53.666;9.700;2023-08-06T02:40:42;16.90;;;9.23;;
64197;SDS011;50512;53.666;9.700;2023-08-06T02:43:10;16.83;;;9.27;;
64197;SDS011;50512;53.666;9.700;2023-08-06T02:45:36;19.05;;;9.80;;
64197;SDS011;50512;53.666;9.700;2023-08-06T02:48:04;18.27;;;9.20;;
64197;SDS011;50512;53.666;9.700;2023-08-06T02:50:31;15.60;;;8.77;;
64197;SDS011;50512;53.666;9.700;2023-08-06T02:53:03;18.23;;;9.07;;
64197;SDS011;50512;53.666;9.700;2023-08-06T02:55:29;20.58;;;10.00;;
64197;SDS011;50512;53.666;9.700;2023-08-06T02:57:56;16.38;;;8.73;;
64197;SDS011;50512;53.666;9.700;2023-08-06T03:00:22;18.50;;;9.13;;
64197;SDS011;50512;53.666;9.700;2023-08-06T03:02:49;17.30;;;9.88;;
64197;SDS011;50512;53.666;9.700;2023-08-06T03:05:16;16.58;;;9.48;;
64197;SDS011;50512;53.666;9.700;2023-08-06T03:07:43;17.35;;;9.27;;
64197;SDS011;50512;53.666;9.700;2023-08-06T03:10:09;19.45;;;9.50;;
64197;SDS011;50512;53.666;9.700;2023-08-06T03:12:36;20.55;;;9.82;;
64197;SDS011;50512;53.666;9.700;2023-08-06T03:15:03;18.15;;;9.68;;
64197;SDS011;50512;53.666;9.700;2023-08-06T03:17:29;20.38;;;8.93;;
64197;SDS011;50512;53.666;9.700;2023-08-06T03:19:56;16.58;;;8.93;;
64197;SDS011;50512;53.666;9.700;2023-08-06T03:22:24;18.42;;;9.50;;
64197;SDS011;50512;53.666;9.700;2023-08-06T03:24:50;16.25;;;8.30;;
64197;SDS011;50512;53.666;9.700;2023-08-06T03:27:17;15.90;;;8.70;;
64197;SDS011;50512;53.666;9.700;2023-08-06T03:29:43;20.65;;;9.13;;
64197;SDS011;50512;53.666;9.700;2023-08-06T03:32:10;19.33;;;10.02;;
64197;SDS011;50512;53.666;9.700;2023-08-06T03:34:36;19.48;;;8.88;;
64197;SDS011;50512;53.666;9.700;2023-08-06T03:37:03;19.70;;;9.82;;
64197;SDS011;50512;53.666;9.700;2023-08-06T03:39:31;19.20;;;9.65;;
64197;SDS011;50512;53.666;9.700;2023-08-06T03:41:57;17.15;;;8.73;;
64197;SDS011;50512;53.666;9.700;2023-08-06T03:44:24;19.10;;;9.48;;
64197;SDS011;50512;53.666;9.700;2023-08-06T03:46:52;19.23;;;9.88;;
64197;SDS011;50512;53.666;9.700;2023-08-06T03:49:18;19.80;;;9.10;;
64197;SDS011;50512;53.666;9.700;2023-08-06T03:51:45;21.23;;;9.40;;
64197;SDS011;50512;53.666;9.700;2023-08-06T03:54:11;18.75;;;10.02;;
64197;SDS011;50512;53.666;9.700;2023-08-06T03:56:39;20.85;;;9.85;;
64197;SDS011;50512;53.666;9.700;2023-08-06T03:59:06;19.70;;;9.27;;
64197;SDS011;50512;53.666;9.700;2023-08-06T04:01:33;17.92;;;9.57;;
64197;SDS011;50512;53.666;9.700;2023-08-06T04:03:59;20.02;;;9.05;;
64197;SDS011;50512;53.666;9.700;2023-08-06T04:06:25;18.80;;;10.00;;
64197;SDS011;50512;53.666;9.700;2023-08-06T04:08:52;19.40;;;9.88;;
64197;SDS011;50512;53.666;9.700;2023-08-06T04:11:18;18.30;;;9.50;;
64197;SDS011;50512;53.666;9.700;2023-08-06T04:13:46;21.02;;;10.13;;
64197;SDS011;50512;53.666;9.700;2023-08-06T04:16:12;20.52;;;9.20;;
64197;SDS011;50512;53.666;9.700;2023-08-06T04:18:40;21.17;;;9.57;;
64197;SDS011;50512;53.666;9.700;2023-08-06T04:21:07;17.00;;;9.43;;
64197;SDS011;50512;53.666;9.700;2023-08-06T04:23:33;21.75;;;9.75;;
64197;SDS011;50512;53.666;9.700;2023-08-06T04:26:00;20.45;;;9.50;;
64197;SDS011;50512;53.666;9.700;2023-08-06T04:28:26;20.27;;;9.50;;
64197;SDS011;50512;53.666;9.700;2023-08-06T04:30:54;16.98;;;8.95;;
64197;SDS011;50512;53.666;9.700;2023-08-06T04:33:20;16.33;;;8.57;;
64197;SDS011;50512;53.666;9.700;2023-08-06T04:35:47;19.25;;;8.80;;
64197;SDS011;50512;53.666;9.700;2023-08-06T04:38:13;15.40;;;8.82;;
64197;SDS011;50512;53.666;9.700;2023-08-06T04:40:40;16.90;;;8.55;;
64197;SDS011;50512;53.666;9.700;2023-08-06T04:43:07;17.70;;;9.20;;
64197;SDS011;50512;53.666;9.700;2023-08-06T04:45:33;18.25;;;8.18;;
64197;SDS011;50512;53.666;9.700;2023-08-06T04:48:01;14.25;;;7.68;;
64197;SDS011;50512;53.666;9.700;2023-08-06T04:50:27;14.38;;;7.60;;
64197;SDS011;50512;53.666;9.700;2023-08-06T04:52:54;15.75;;;8.45;;
64197;SDS011;50512;53.666;9.700;2023-08-06T04:55:20;15.88;;;7.55;;
64197;SDS011;50512;53.666;9.700;2023-08-06T04:57:47;15.18;;;6.68;;
64197;SDS011;50512;53.666;9.700;2023-08-06T05:00:13;13.70;;;8.00;;
64197;SDS011;50512;53.666;9.700;2023-08-06T05:02:40;15.48;;;7.63;;
64197;SDS011;50512;53.666;9.700;2023-08-06T05:05:08;11.85;;;7.35;;
64197;SDS011;50512;53.666;9.700;2023-08-06T05:07:34;12.65;;;6.78;;
64197;SDS011;50512;53.666;9.700;2023-08-06T05:10:01;16.17;;;7.72;;
64197;SDS011;50512;53.666;9.700;2023-08-06T05:12:29;15.65;;;6.70;;
64197;SDS011;50512;53.666;9.700;2023-08-06T05:14:55;14.18;;;7.07;;
64197;SDS011;50512;53.666;9.700;2023-08-06T05:17:22;16.90;;;7.57;;
64197;SDS011;50512;53.666;9.700;2023-08-06T05:19:49;15.98;;;7.32;;
64197;SDS011;50512;53.666;9.700;2023-08-06T05:22:17;15.73;;;6.93;;
64197;SDS011;50512;53.666;9.700;2023-08-06T05:24:43;14.45;;;6.97;;
64197;SDS011;50512;53.666;9.700;2023-08-06T05:27:10;15.15;;;6.55;;
64197;SDS011;50512;53.666;9.700;2023-08-06T05:29:36;15.50;;;7.13;;
64197;SDS011;50512;53.666;9.700;2023-08-06T05:32:03;13.70;;;6.85;;
64197;SDS011;50512;53.666;9.700;2023-08-06T05:34:30;14.68;;;6.55;;
64197;SDS011;50512;53.666;9.700;2023-08-06T05:36:56;13.10;;;6.72;;
64197;SDS011;50512;53.666;9.700;2023-08-06T05:39:24;15.13;;;7.15;;
64197;SDS011;50512;53.666;9.700;2023-08-06T05:41:50;15.65;;;7.00;;
64197;SDS011;50512;53.666;9.700;2023-08-06T05:44:17;16.20;;;7.28;;
64197;SDS011;50512;53.666;9.700;2023-08-06T05:46:44;15.13;;;6.80;;
64197;SDS011;50512;53.666;9.700;2023-08-06T05:49:10;12.05;;;6.43;;
64197;SDS011;50512;53.666;9.700;2023-08-06T05:51:38;18.65;;;6.57;;
64197;SDS011;50512;53.666;9.700;2023-08-06T05:54:04;14.73;;;6.93;;
64197;SDS011;50512;53.666;9.700;2023-08-06T05:56:32;13.15;;;6.93;;
64197;SDS011;50512;53.666;9.700;2023-08-06T05:58:59;17.10;;;6.63;;
64197;SDS011;50512;53.666;9.700;2023-08-06T06:01:25;15.95;;;6.47;;
64197;SDS011;50512;53.666;9.700;2023-08-06T06:03:52;17.05;;;6.75;;
64197;SDS011;50512;53.666;9.700;2023-08-06T06:06:18;17.25;;;6.90;;
64197;SDS011;50512;53.666;9.700;2023-08-06T06:08:45;17.98;;;7.53;;
64197;SDS011;50512;53.666;9.700;2023-08-06T06:11:11;17.50;;;6.97;;
64197;SDS011;50512;53.666;9.700;2023-08-06T06:13:39;14.43;;;7.20;;
64197;SDS011;50512;53.666;9.700;2023-08-06T06:16:06;14.50;;;6.90;;
64197;SDS011;50512;53.666;9.700;2023-08-06T06:18:32;15.00;;;7.93;;
64197;SDS011;50512;53.666;9.700;2023-08-06T06:20:58;12.85;;;8.00;;
64197;SDS011;50512;53.666;9.700;2023-08-06T06:23:25;20.95;;;8.52;;
64197;SDS011;50512;53.666;9.700;2023-08-06T06:25:51;13.82;;;7.80;;
64197;SDS011;50512;53.666;9.700;2023-08-06T06:28:18;16.27;;;7.88;;
64197;SDS011;50512;53.666;9.700;2023-08-06T06:30:46;13.05;;;8.10;;
64197;SDS011;50512;53.666;9.700;2023-08-06T06:33:12;15.95;;;7.95;;
64197;SDS011;50512;53.666;9.700;2023-08-06T06:35:39;16.05;;;8.52;;
64197;SDS011;50512;53.666;9.700;2023-08-06T06:38:05;16.23;;;8.18;;
64197;SDS011;50512;53.666;9.700;2023-08-06T06:40:32;17.58;;;7.45;;
64197;SDS011;50512;53.666;9.700;2023-08-06T06:42:59;14.25;;;7.93;;
64197;SDS011;50512;53.666;9.700;2023-08-06T06:45:25;16.27;;;7.93;;
64197;SDS011;50512;53.666;9.700;2023-08-06T06:47:53;15.73;;;7.35;;
64197;SDS011;50512;53.666;9.700;2023-08-06T06:50:19;15.38;;;7.60;;
64197;SDS011;50512;53.666;9.700;2023-08-06T06:52:46;18.33;;;7.68;;
64197;SDS011;50512;53.666;9.700;2023-08-06T06:55:12;14.10;;;7.00;;
64197;SDS011;50512;53.666;9.700;2023-08-06T06:57:38;14.40;;;7.45;;
64197;SDS011;50512;53.666;9.700;2023-08-06T07:00:05;16.27;;;7.15;;
64197;SDS011;50512;53.666;9.700;2023-08-06T07:02:33;13.32;;;6.68;;
64197;SDS011;50512;53.666;9.700;2023-08-06T07:05:00;20.58;;;7.93;;
64197;SDS011;50512;53.666;9.700;2023-08-06T07:07:27;13.30;;;6.60;;
64197;SDS011;50512;53.666;9.700;2023-08-06T07:09:53;13.20;;;6.90;;
64197;SDS011;50512;53.666;9.700;2023-08-06T07:12:20;16.45;;;8.55;;
64197;SDS011;50512;53.666;9.700;2023-08-06T07:14:46;16.85;;;7.93;;
64197;SDS011;50512;53.666;9.700;2023-08-06T07:17:13;19.75;;;7.32;;
64197;SDS011;50512;53.666;9.700;2023-08-06T07:19:39;17.52;;;7.60;;
64197;SDS011;50512;53.666;9.700;2023-08-06T07:22:07;18.67;;;6.85;;
64197;SDS011;50512;53.666;9.700;2023-08-06T07:24:34;14.55;;;7.70;;
64197;SDS011;50512;53.666;9.700;2023-08-06T07:27:00;17.40;;;7.40;;
64197;SDS011;50512;53.666;9.700;2023-08-06T07:29:27;15.68;;;7.63;;
64197;SDS011;50512;53.666;9.700;2023-08-06T07:31:53;13.63;;;6.60;;
64197;SDS011;50512;53.666;9.700;2023-08-06T07:34:20;14.10;;;6.65;;
64197;SDS011;50512;53.666;9.700;2023-08-06T07:36:48;15.90;;;7.25;;
64197;SDS011;50512;53.666;9.700;2023-08-06T07:39:16;14.98;;;6.75;;
64197;SDS011;50512;53.666;9.700;2023-08-06T07:41:43;17.40;;;7.43;;
64197;SDS011;50512;53.666;9.700;2023-08-06T07:44:10;17.80;;;7.47;;
64197;SDS011;50512;53.666;9.700;2023-08-06T07:46:37;19.38;;;7.22;;
64197;SDS011;50512;53.666;9.700;2023-08-06T07:49:04;17.98;;;7.47;;
64197;SDS011;50512;53.666;9.700;2023-08-06T07:51:30;13.80;;;7.35;;
64197;SDS011;50512;53.666;9.700;2023-08-06T07:53:57;15.25;;;7.60;;
64197;SDS011;50512;53.666;9.700;2023-08-06T07:56:25;17.35;;;8.18;;
64197;SDS011;50512;53.666;9.700;2023-08-06T07:58:51;17.80;;;7.60;;
64197;SDS011;50512;53.666;9.700;2023-08-06T08:01:17;16.60;;;7.45;;
64197;SDS011;50512;53.666;9.700;2023-08-06T08:03:44;12.30;;;7.20;;
64197;SDS011;50512;53.666;9.700;2023-08-06T08:06:10;15.82;;;7.72;;
64197;SDS011;50512;53.666;9.700;2023-08-06T08:08:37;17.50;;;7.72;;
64197;SDS011;50512;53.666;9.700;2023-08-06T08:11:03;15.05;;;8.32;;
64197;SDS011;50512;53.666;9.700;2023-08-06T08:13:31;21.02;;;7.28;;
64197;SDS011;50512;53.666;9.700;2023-08-06T08:15:59;15.82;;;7.47;;
64197;SDS011;50512;53.666;9.700;2023-08-06T08:18:26;15.13;;;7.57;;
64197;SDS011;50512;53.666;9.700;2023-08-06T08:20:53;18.60;;;7.70;;
64197;SDS011;50512;53.666;9.700;2023-08-06T08:23:19;20.83;;;9.25;;
64197;SDS011;50512;53.666;9.700;2023-08-06T08:25:45;18.92;;;8.32;;
64197;SDS011;50512;53.666;9.700;2023-08-06T08:28:12;16.35;;;7.88;;
64197;SDS011;50512;53.666;9.700;2023-08-06T08:30:41;18.52;;;8.38;;
64197;SDS011;50512;53.666;9.700;2023-08-06T08:33:08;17.60;;;8.27;;
64197;SDS011;50512;53.666;9.700;2023-08-06T08:35:34;14.80;;;7.78;;
64197;SDS011;50512;53.666;9.700;2023-08-06T08:38:02;18.08;;;8.93;;
64197;SDS011;50512;53.666;9.700;2023-08-06T08:40:30;19.83;;;7.88;;
64197;SDS011;50512;53.666;9.700;2023-08-06T08:42:58;19.20;;;8.27;;
64197;SDS011;50512;53.666;9.700;2023-08-06T08:45:26;20.17;;;8.77;;
64197;SDS011;50512;53.666;9.700;2023-08-06T08:47:56;22.02;;;8.93;;
64197;SDS011;50512;53.666;9.700;2023-08-06T08:50:22;17.35;;;8.43;;
64197;SDS011;50512;53.666;9.700;2023-08-06T08:52:49;19.38;;;8.48;;
64197;SDS011;50512;53.666;9.700;2023-08-06T08:55:16;20.58;;;8.60;;
64197;SDS011;50512;53.666;9.700;2023-08-06T08:57:46;23.58;;;8.82;;
64197;SDS011;50512;53.666;9.700;2023-08-06T09:00:12;17.95;;;8.23;;
64197;SDS011;50512;53.666;9.700;2023-08-06T09:02:40;16.30;;;8.40;;
64197;SDS011;50512;53.666;9.700;2023-08-06T09:05:09;18.00;;;8.77;;
64197;SDS011;50512;53.666;9.700;2023-08-06T09:07:38;15.02;;;7.93;;
64197;SDS011;50512;53.666;9.700;2023-08-06T09:10:10;13.88;;;7.80;;
64197;SDS011;50512;53.666;9.700;2023-08-06T09:12:38;16.63;;;8.88;;
64197;SDS011;50512;53.666;9.700;2023-08-06T09:15:05;18.25;;;8.75;;
64197;SDS011;50512;53.666;9.700;2023-08-06T09:17:32;17.55;;;8.75;;
64197;SDS011;50512;53.666;9.700;2023-08-06T09:19:59;22.55;;;9.18;;
64197;SDS011;50512;53.666;9.700;2023-08-06T09:22:39;16.92;;;8.90;;
64197;SDS011;50512;53.666;9.700;2023-08-06T09:25:06;15.70;;;8.30;;
64197;SDS011;50512;53.666;9.700;2023-08-06T09:27:35;15.05;;;8.27;;
64197;SDS011;50512;53.666;9.700;2023-08-06T09:30:01;30.35;;;10.75;;
64197;SDS011;50512;53.666;9.700;2023-08-06T09:32:29;18.08;;;8.57;;
64197;SDS011;50512;53.666;9.700;2023-08-06T09:35:16;14.18;;;8.27;;
64197;SDS011;50512;53.666;9.700;2023-08-06T09:37:43;17.95;;;8.38;;
64197;SDS011;50512;53.666;9.700;2023-08-06T09:40:26;25.38;;;9.25;;
64197;SDS011;50512;53.666;9.700;2023-08-06T09:42:54;15.55;;;7.97;;
64197;SDS011;50512;53.666;9.700;2023-08-06T09:45:22;19.92;;;8.50;;
64197;SDS011;50512;53.666;9.700;2023-08-06T09:47:48;17.63;;;8.70;;
64197;SDS011;50512;53.666;9.700;2023-08-06T09:50:17;16.52;;;8.00;;
64197;SDS011;50512;53.666;9.700;2023-08-06T09:52:44;15.18;;;7.22;;
64197;SDS011;50512;53.666;9.700;2023-08-06T09:55:11;20.05;;;8.20;;
64197;SDS011;50512;53.666;9.700;2023-08-06T09:57:39;16.35;;;8.10;;
64197;SDS011;50512;53.666;9.700;2023-08-06T10:00:06;15.10;;;7.00;;
64197;SDS011;50512;53.666;9.700;2023-08-06T10:02:34;16.05;;;7.85;;
64197;SDS011;50512;53.666;9.700;2023-08-06T10:05:01;18.85;;;8.68;;
64197;SDS011;50512;53.666;9.700;2023-08-06T10:07:30;17.48;;;7.88;;
64197;SDS011;50512;53.666;9.700;2023-08-06T10:09:58;16.73;;;8.50;;
64197;SDS011;50512;53.666;9.700;2023-08-06T10:12:24;21.85;;;8.18;;
64197;SDS011;50512;53.666;9.700;2023-08-06T10:14:55;14.52;;;7.53;;
64197;SDS011;50512;53.666;9.700;2023-08-06T10:17:23;13.88;;;7.70;;
64197;SDS011;50512;53.666;9.700;2023-08-06T10:19:50;20.95;;;8.90;;
64197;SDS011;50512;53.666;9.700;2023-08-06T10:22:19;14.80;;;6.97;;
64197;SDS011;50512;53.666;9.700;2023-08-06T10:24:51;13.90;;;7.53;;
64197;SDS011;50512;53.666;9.700;2023-08-06T10:27:19;19.75;;;8.23;;
64197;SDS011;50512;53.666;9.700;2023-08-06T10:29:54;17.83;;;7.50;;
64197;SDS011;50512;53.666;9.700;2023-08-06T10:32:20;14.25;;;7.10;;
64197;SDS011;50512;53.666;9.700;2023-08-06T10:34:54;16.52;;;7.82;;
64197;SDS011;50512;53.666;9.700;2023-08-06T10:37:24;16.95;;;7.10;;
64197;SDS011;50512;53.666;9.700;2023-08-06T10:40:02;16.40;;;7.90;;
64197;SDS011;50512;53.666;9.700;2023-08-06T10:42:29;19.65;;;8.32;;
64197;SDS011;50512;53.666;9.700;2023-08-06T10:45:10;18.35;;;7.70;;
64197;SDS011;50512;53.666;9.700;2023-08-06T10:47:38;17.30;;;7.65;;
64197;SDS011;50512;53.666;9.700;2023-08-06T10:50:05;16.90;;;8.93;;
64197;SDS011;50512;53.666;9.700;2023-08-06T10:52:33;14.68;;;7.65;;
64197;SDS011;50512;53.666;9.700;2023-08-06T10:55:01;15.48;;;7.90;;
64197;SDS011;50512;53.666;9.700;2023-08-06T10:57:28;17.98;;;8.32;;
64197;SDS011;50512;53.666;9.700;2023-08-06T10:59:54;13.80;;;7.25;;
64197;SDS011;50512;53.666;9.700;2023-08-06T11:02:21;16.80;;;8.00;;
64197;SDS011;50512;53.666;9.700;2023-08-06T11:04:47;16.85;;;8.07;;
64197;SDS011;50512;53.666;9.700;2023-08-06T11:07:14;14.10;;;6.50;;
64197;SDS011;50512;53.666;9.700;2023-08-06T11:09:40;14.07;;;7.70;;
64197;SDS011;50512;53.666;9.700;2023-08-06T11:12:10;15.90;;;8.55;;
64197;SDS011;50512;53.666;9.700;2023-08-06T11:14:36;13.25;;;6.28;;
64197;SDS011;50512;53.666;9.700;2023-08-06T11:17:03;21.23;;;9.05;;
64197;SDS011;50512;53.666;9.700;2023-08-06T11:19:31;15.38;;;8.40;;
64197;SDS011;50512;53.666;9.700;2023-08-06T11:21:57;17.00;;;7.43;;
64197;SDS011;50512;53.666;9.700;2023-08-06T11:24:26;18.13;;;9.32;;
64197;SDS011;50512;53.666;9.700;2023-08-06T11:26:53;19.17;;;7.53;;
64197;SDS011;50512;53.666;9.700;2023-08-06T11:29:20;14.52;;;7.40;;
64197;SDS011;50512;53.666;9.700;2023-08-06T11:31:48;14.50;;;6.95;;
64197;SDS011;50512;53.666;9.700;2023-08-06T11:34:14;12.93;;;6.72;;
64197;SDS011;50512;53.666;9.700;2023-08-06T11:36:41;14.18;;;6.38;;
64197;SDS011;50512;53.666;9.700;2023-08-06T11:39:08;12.05;;;6.75;;
64197;SDS011;50512;53.666;9.700;2023-08-06T11:41:35;15.55;;;7.03;;
64197;SDS011;50512;53.666;9.700;2023-08-06T11:44:04;14.63;;;7.05;;
64197;SDS011;50512;53.666;9.700;2023-08-06T11:49:18;19.80;;;7.68;;
64197;SDS011;50512;53.666;9.700;2023-08-06T11:51:46;11.80;;;5.72;;
64197;SDS011;50512;53.666;9.700;2023-08-06T11:54:13;14.93;;;6.60;;
64197;SDS011;50512;53.666;9.700;2023-08-06T11:56:39;12.32;;;6.88;;
64197;SDS011;50512;53.666;9.700;2023-08-06T11:59:06;11.90;;;6.72;;
64197;SDS011;50512;53.666;9.700;2023-08-06T12:01:35;12.35;;;7.15;;
64197;SDS011;50512;53.666;9.700;2023-08-06T12:04:03;14.85;;;7.22;;
64197;SDS011;50512;53.666;9.700;2023-08-06T12:06:30;12.93;;;6.68;;
64197;SDS011;50512;53.666;9.700;2023-08-06T12:08:57;17.95;;;8.38;;
64197;SDS011;50512;53.666;9.700;2023-08-06T12:11:23;15.27;;;6.72;;
64197;SDS011;50512;53.666;9.700;2023-08-06T12:13:50;15.25;;;7.70;;
64197;SDS011;50512;53.666;9.700;2023-08-06T12:16:17;18.38;;;8.95;;
64197;SDS011;50512;53.666;9.700;2023-08-06T12:18:43;15.50;;;7.22;;
64197;SDS011;50512;53.666;9.700;2023-08-06T12:21:11;15.45;;;7.63;;
64197;SDS011;50512;53.666;9.700;2023-08-06T12:23:38;13.63;;;6.25;;
64197;SDS011;50512;53.666;9.700;2023-08-06T12:26:04;16.88;;;8.23;;
64197;SDS011;50512;53.666;9.700;2023-08-06T12:28:31;18.17;;;8.07;;
64197;SDS011;50512;53.666;9.700;2023-08-06T12:30:57;18.65;;;9.68;;
64197;SDS011;50512;53.666;9.700;2023-08-06T12:33:23;20.48;;;9.38;;
64197;SDS011;50512;53.666;9.700;2023-08-06T12:35:50;21.27;;;9.30;;
64197;SDS011;50512;53.666;9.700;2023-08-06T12:38:19;16.75;;;8.32;;
64197;SDS011;50512;53.666;9.700;2023-08-06T12:40:46;20.58;;;10.57;;
64197;SDS011;50512;53.666;9.700;2023-08-06T12:43:12;18.45;;;9.77;;
64197;SDS011;50512;53.666;9.700;2023-08-06T12:45:39;18.27;;;9.52;;
64197;SDS011;50512;53.666;9.700;2023-08-06T12:48:05;19.73;;;9.50;;
64197;SDS011;50512;53.666;9.700;2023-08-06T12:50:32;27.02;;;11.32;;
64197;SDS011;50512;53.666;9.700;2023-08-06T12:52:59;16.65;;;9.55;;
64197;SDS011;50512;53.666;9.700;2023-08-06T12:55:27;17.38;;;10.20;;
64197;SDS011;50512;53.666;9.700;2023-08-06T12:57:53;20.95;;;10.30;;
64197;SDS011;50512;53.666;9.700;2023-08-06T13:00:20;19.77;;;10.05;;
64197;SDS011;50512;53.666;9.700;2023-08-06T13:02:46;18.17;;;9.93;;
64197;SDS011;50512;53.666;9.700;2023-08-06T13:05:13;21.65;;;10.80;;
64197;SDS011;50512;53.666;9.700;2023-08-06T13:07:39;23.08;;;10.38;;
64197;SDS011;50512;53.666;9.700;2023-08-06T13:10:06;20.35;;;10.65;;
64197;SDS011;50512;53.666;9.700;2023-08-06T13:12:35;21.33;;;9.05;;
64197;SDS011;50512;53.666;9.700;2023-08-06T13:15:01;19.88;;;8.68;;
64197;SDS011;50512;53.666;9.700;2023-08-06T13:17:28;14.95;;;7.43;;
64197;SDS011;50512;53.666;9.700;2023-08-06T13:19:54;14.50;;;7.32;;
64197;SDS011;50512;53.666;9.700;2023-08-06T13:22:21;14.85;;;6.18;;
64197;SDS011;50512;53.666;9.700;2023-08-06T13:24:47;14.27;;;5.97;;
64197;SDS011;50512;53.666;9.700;2023-08-06T13:27:13;18.27;;;5.30;;
64197;SDS011;50512;53.666;9.700;2023-08-06T13:29:41;8.57;;;4.63;;
64197;SDS011;50512;53.666;9.700;2023-08-06T13:32:08;11.15;;;4.80;;
64197;SDS011;50512;53.666;9.700;2023-08-06T13:34:34;11.52;;;4.80;;
64197;SDS011;50512;53.666;9.700;2023-08-06T13:37:00;15.93;;;5.00;;
64197;SDS011;50512;53.666;9.700;2023-08-06T13:39:30;10.98;;;4.72;;
64197;SDS011;50512;53.666;9.700;2023-08-06T13:41:56;10.95;;;5.00;;
64197;SDS011;50512;53.666;9.700;2023-08-06T13:44:23;9.18;;;3.85;;
64197;SDS011;50512;53.666;9.700;2023-08-06T13:46:51;11.20;;;5.03;;
64197;SDS011;50512;53.666;9.700;2023-08-06T13:49:17;11.75;;;4.93;;
64197;SDS011;50512;53.666;9.700;2023-08-06T13:51:43;7.93;;;4.10;;
64197;SDS011;50512;53.666;9.700;2023-08-06T13:54:10;8.07;;;4.28;;
64197;SDS011;50512;53.666;9.700;2023-08-06T13:56:36;6.60;;;3.72;;
64197;SDS011;50512;53.666;9.700;2023-08-06T13:59:03;11.55;;;3.35;;
64197;SDS011;50512;53.666;9.700;2023-08-06T14:01:30;8.07;;;3.63;;
64197;SDS011;50512;53.666;9.700;2023-08-06T14:03:59;9.05;;;4.20;;
64197;SDS011;50512;53.666;9.700;2023-08-06T14:06:25;7.85;;;4.00;;
64197;SDS011;50512;53.666;9.700;2023-08-06T14:08:52;11.27;;;4.40;;
64197;SDS011;50512;53.666;9.700;2023-08-06T14:11:18;8.75;;;4.88;;
64197;SDS011;50512;53.666;9.700;2023-08-06T14:13:44;8.75;;;4.38;;
64197;SDS011;50512;53.666;9.700;2023-08-06T14:16:11;13.05;;;4.70;;
64197;SDS011;50512;53.666;9.700;2023-08-06T14:18:37;7.88;;;3.83;;
64197;SDS011;50512;53.666;9.700;2023-08-06T14:21:07;6.60;;;3.53;;
64197;SDS011;50512;53.666;9.700;2023-08-06T14:23:34;8.85;;;3.95;;
64197;SDS011;50512;53.666;9.700;2023-08-06T14:26:00;10.07;;;3.90;;
64197;SDS011;50512;53.666;9.700;2023-08-06T14:28:27;10.25;;;4.63;;
64197;SDS011;50512;53.666;9.700;2023-08-06T14:30:53;7.55;;;4.30;;
64197;SDS011;50512;53.666;9.700;2023-08-06T14:33:21;9.10;;;4.70;;
64197;SDS011;50512;53.666;9.700;2023-08-06T14:35:47;9.30;;;4.55;;